Time;durP1;ratioP1;P1;durP2;ratioP2;P2;SDS_P1;SDS_P2;PMS_P1;PMS_P2;Temp;Humidity;BMP_temperature;BMP_pressure;BME280_temperature;BME280_humidity;BME280_pressure;Samples;Min_cycle;Max_cycle;Signal;HPM_P1;HPM_P2
2021/04/01 00:00:12;;;;;;;1999.90;999.90;;;;;;;14.88;88.28;-18303.97;5018802;28;20267;-30
2021/04/01 00:02:57;;;;;;;1999.90;999.90;;;;;;;14.91;83.47;-18304.91;5016734;28;20203;-29
2021/04/01 00:05:48;;;;;;;1999.90;999.90;;;;;;;14.76;84.47;-18301.03;5019196;28;20548;-29
2021/04/01 00:08:34;;;;;;;1999.90;999.90;;;;;;;14.76;79.81;-18300.91;5020723;28;20598;-29
2021/04/01 00:11:22;;;;;;;1999.90;999.90;;;;;;;14.74;79.50;-18300.50;5016683;28;20235;-29
2021/04/01 00:14:10;;;;;;;1999.90;999.90;;;;;;;14.86;74.94;-18303.44;5018452;28;20207;-29
2021/04/01 00:16:56;;;;;;;1999.90;999.90;;;;;;;14.98;73.35;-18306.63;5017395;28;20207;-29
2021/04/01 00:19:42;;;;;;;1999.90;999.90;;;;;;;14.91;73.86;-18304.75;5017285;28;20296;-29
2021/04/01 00:22:30;;;;;;;1999.90;999.90;;;;;;;14.93;75.76;-18305.28;5018107;28;20375;-28
2021/04/01 00:25:18;;;;;;;1999.90;999.90;;;;;;;14.90;75.07;-18304.50;5020728;28;20203;-29
2021/04/01 00:28:04;;;;;;;1999.90;999.90;;;;;;;14.90;74.49;-18304.63;5020236;28;20671;-29
2021/04/01 00:30:50;;;;;;;1999.90;999.90;;;;;;;14.82;74.69;-18302.63;5020117;28;20242;-29
2021/04/01 00:33:36;;;;;;;1999.90;999.90;;;;;;;14.73;78.41;-18300.09;5020504;28;20277;-29
2021/04/01 00:36:21;;;;;;;1999.90;999.90;;;;;;;14.84;74.72;-18303.03;5019967;28;20261;-29
2021/04/01 00:39:09;;;;;;;1999.90;999.90;;;;;;;14.81;74.73;-18302.38;5020267;28;20205;-29
2021/04/01 00:41:55;;;;;;;1999.90;999.90;;;;;;;14.81;74.82;-18302.38;5025156;28;20215;-29
2021/04/01 00:44:41;;;;;;;1999.90;999.90;;;;;;;14.82;75.21;-18302.63;5028407;28;20257;-29
2021/04/01 00:47:33;;;;;;;1999.90;999.90;;;;;;;14.83;75.89;-18302.75;5021716;28;20202;-29
2021/04/01 00:50:22;;;;;;;1999.90;999.90;;;;;;;14.43;78.78;-18292.38;5020766;28;20225;-29
2021/04/01 00:53:10;;;;;;;1999.90;999.90;;;;;;;14.40;81.04;-18291.44;5020750;28;20743;-29
2021/04/01 00:55:58;;;;;;;1999.90;999.90;;;;;;;14.41;83.97;-18291.69;5021886;28;20241;-29
2021/04/01 00:58:45;;;;;;;1999.90;999.90;;;;;;;14.32;85.22;-18289.31;5020519;28;20297;-29
2021/04/01 01:01:42;;;;;;;1999.90;999.90;;;;;;;14.40;81.66;-18291.44;5020314;28;20277;-29
2021/04/01 01:04:31;;;;;;;1999.90;999.90;;;;;;;13.95;83.45;-18279.56;5021062;28;20610;-29
2021/04/01 01:07:19;;;;;;;1999.90;999.90;;;;;;;14.02;84.59;-18281.56;5023205;28;20209;-29
2021/04/01 01:10:08;;;;;;;1999.90;999.90;;;;;;;14.07;87.14;-18282.91;5019901;28;20361;-29
2021/04/01 01:12:58;;;;;;;1999.90;999.90;;;;;;;14.23;86.58;-18287.03;5022638;28;20353;-29
2021/04/01 01:15:44;;;;;;;1999.90;999.90;;;;;;;14.12;87.24;-18284.25;5020456;28;20203;-29
2021/04/01 01:18:31;;;;;;;1999.90;999.90;;;;;;;14.14;84.54;-18284.63;5019696;28;20608;-29
2021/04/01 01:21:17;;;;;;;1999.90;999.90;;;;;;;14.18;83.41;-18285.69;5019458;28;20202;-29
2021/04/01 01:24:03;;;;;;;1999.90;999.90;;;;;;;13.70;87.29;-18273.16;5019573;28;20687;-28
2021/04/01 01:26:50;;;;;;;1999.90;999.90;;;;;;;13.97;84.87;-18280.09;5019502;28;20299;-28
2021/04/01 01:29:37;;;;;;;1999.90;999.90;;;;;;;14.06;86.34;-18282.63;5025506;28;20304;-29
2021/04/01 01:32:23;;;;;;;1999.90;999.90;;;;;;;14.17;84.85;-18285.31;5020137;28;20206;-28
2021/04/01 01:35:16;;;;;;;1999.90;999.90;;;;;;;14.05;86.08;-18282.38;5019267;28;20238;-29
2021/04/01 01:38:04;;;;;;;1999.90;999.90;;;;;;;14.07;85.74;-18282.91;5021024;28;20205;-29
2021/04/01 01:40:51;;;;;;;1999.90;999.90;;;;;;;14.02;86.74;-18281.56;5020578;28;20285;-29
2021/04/01 01:43:38;;;;;;;1999.90;999.90;;;;;;;14.09;86.33;-18283.44;5019559;28;20210;-29
2021/04/01 01:46:26;;;;;;;1999.90;999.90;;;;;;;14.06;87.77;-18282.63;5024868;28;20244;-29
2021/04/01 01:49:12;;;;;;;1999.90;999.90;;;;;;;14.08;90.24;-18283.03;5032733;28;20197;-29
2021/04/01 01:52:02;;;;;;;1999.90;999.90;;;;;;;14.07;87.81;-18282.78;5033450;28;20285;-29
2021/04/01 01:54:48;;;;;;;1999.90;999.90;;;;;;;14.19;87.37;-18285.97;5035333;28;20210;-29
2021/04/01 01:57:34;;;;;;;1999.90;999.90;;;;;;;14.18;87.34;-18285.69;5030364;28;20253;-29
2021/04/01 02:00:24;;;;;;;1999.90;999.90;;;;;;;14.28;85.28;-18288.22;5029410;28;20594;-29
2021/04/01 02:03:12;;;;;;;1999.90;999.90;;;;;;;14.26;86.44;-18287.84;5020611;28;20256;-29
2021/04/01 02:05:57;;;;;;;1999.90;999.90;;;;;;;14.29;88.55;-18288.63;5019007;28;20208;-29
2021/04/01 02:08:45;;;;;;;1999.90;999.90;;;;;;;14.34;86.34;-18289.84;5019597;28;20253;-29
2021/04/01 02:11:30;;;;;;;1999.90;999.90;;;;;;;14.29;86.31;-18288.50;5019160;28;20225;-29
2021/04/01 02:14:18;;;;;;;1999.90;999.90;;;;;;;14.29;85.91;-18288.63;5018453;28;20202;-29
2021/04/01 02:17:06;;;;;;;1999.90;999.90;;;;;;;14.24;86.59;-18287.16;5018980;28;20309;-29
2021/04/01 02:19:59;;;;;;;1999.90;999.90;;;;;;;14.35;86.04;-18290.09;5018721;28;20297;-29
2021/04/01 02:22:45;;;;;;;1999.90;999.90;;;;;;;14.38;83.94;-18291.03;5018395;28;20206;-29
2021/04/01 02:25:31;;;;;;;1999.90;999.90;;;;;;;14.30;84.86;-18288.91;5018815;28;20303;-29
2021/04/01 02:28:19;;;;;;;1999.90;999.90;;;;;;;14.38;86.53;-18290.91;5018155;28;20201;-29
2021/04/01 02:31:07;;;;;;;1999.90;999.90;;;;;;;14.54;83.89;-18295.16;5023000;28;20234;-29
2021/04/01 02:33:53;;;;;;;1999.90;999.90;;;;;;;14.40;86.39;-18291.44;5026206;28;20258;-29
2021/04/01 02:36:40;;;;;;;1999.90;999.90;;;;;;;14.46;88.29;-18293.03;4981290;28;20307;-29
2021/04/01 02:39:26;;;;;;;1999.90;999.90;;;;;;;14.48;85.10;-18293.69;4978941;28;20194;-29
2021/04/01 02:42:12;;;;;;;1999.90;999.90;;;;;;;14.54;82.67;-18295.03;4978988;28;20199;-30
2021/04/01 02:44:58;;;;;;;1999.90;999.90;;;;;;;14.41;85.95;-18291.69;4978721;28;20206;-28
2021/04/01 02:47:45;;;;;;;1999.90;999.90;;;;;;;14.43;86.58;-18292.38;4978854;28;20216;-30
2021/04/01 02:50:32;;;;;;;1999.90;999.90;;;;;;;14.60;81.84;-18296.75;4978832;28;20226;-28
2021/04/01 02:53:19;;;;;;;1999.90;999.90;;;;;;;14.48;84.72;-18293.56;4979030;28;20327;-28
2021/04/01 02:56:06;;;;;;;1999.90;999.90;;;;;;;14.40;86.67;-18291.44;4978659;28;20206;-29
2021/04/01 02:58:51;;;;;;;1999.90;999.90;;;;;;;14.54;85.00;-18295.16;4978411;28;20199;-28
2021/04/01 03:01:38;;;;;;;1999.90;999.90;;;;;;;14.64;82.01;-18297.69;4979041;28;20199;-28
2021/04/01 03:04:24;;;;;;;1999.90;999.90;;;;;;;14.39;82.97;-18291.28;4978251;28;20234;-28
2021/04/01 03:07:11;;;;;;;1999.90;999.90;;;;;;;14.05;87.39;-18282.22;4978550;28;20231;-28
2021/04/01 03:09:58;;;;;;;1999.90;999.90;;;;;;;14.40;86.13;-18291.56;4978022;28;20203;-29
2021/04/01 03:12:44;;;;;;;1999.90;999.90;;;;;;;14.57;84.34;-18295.84;4978581;28;20254;-29
2021/04/01 03:15:32;;;;;;;1999.90;999.90;;;;;;;14.64;85.53;-18297.84;4978607;28;20212;-29
2021/04/01 03:18:18;;;;;;;1999.90;999.90;;;;;;;14.65;85.66;-18298.09;4978829;28;20306;-28
2021/04/01 03:21:07;;;;;;;1999.90;999.90;;;;;;;14.47;83.31;-18293.44;4978521;28;20203;-29
2021/04/01 03:23:54;;;;;;;1999.90;999.90;;;;;;;14.69;85.73;-18299.03;4978406;28;20256;-29
2021/04/01 03:26:41;;;;;;;1999.90;999.90;;;;;;;14.67;86.56;-18298.63;4978196;28;20312;-29
2021/04/01 03:29:26;;;;;;;1999.90;999.90;;;;;;;14.69;86.89;-18299.16;4978165;28;20267;-29
2021/04/01 03:32:12;;;;;;;1999.90;999.90;;;;;;;14.75;87.35;-18300.63;4977844;28;20247;-29
2021/04/01 03:34:57;;;;;;;1999.90;999.90;;;;;;;14.65;86.98;-18297.97;4994693;28;20341;-29
2021/04/01 03:37:44;;;;;;;1999.90;999.90;;;;;;;14.74;82.94;-18300.50;5018195;28;20202;-30
2021/04/01 03:40:32;;;;;;;1999.90;999.90;;;;;;;14.67;83.84;-18298.63;5018388;28;20206;-30
2021/04/01 03:43:19;;;;;;;1999.90;999.90;;;;;;;14.49;83.46;-18293.84;5022306;28;20205;-30
2021/04/01 03:46:09;;;;;;;1999.90;999.90;;;;;;;14.62;84.89;-18297.16;5020824;28;20669;-29
2021/04/01 03:48:55;;;;;;;1999.90;999.90;;;;;;;14.65;82.73;-18298.09;5021041;28;20538;-30
2021/04/01 03:51:41;;;;;;;1999.90;999.90;;;;;;;14.21;86.47;-18286.50;5024356;28;20237;-29
2021/04/01 03:54:27;;;;;;;1999.90;999.90;;;;;;;13.76;90.67;-18274.78;5027034;28;20197;-29
2021/04/01 03:57:13;;;;;;;1999.90;999.90;;;;;;;14.00;87.98;-18281.03;5025033;28;20193;-29
2021/04/01 04:00:04;;;;;;;1999.90;999.90;;;;;;;14.48;87.70;-18293.56;5021245;28;20354;-29
2021/04/01 04:02:59;;;;;;;1999.90;999.90;;;;;;;14.63;85.59;-18297.56;5021020;28;20266;-30
2021/04/01 04:05:55;;;;;;;1999.90;999.90;;;;;;;14.07;87.08;-18282.78;5020272;28;20202;-30
2021/04/01 04:09:01;;;;;;;1999.90;999.90;;;;;;;14.03;90.72;-18281.84;5021242;28;20208;-29
2021/04/01 04:11:50;;;;;;;1999.90;999.90;;;;;;;14.39;87.63;-18291.16;5021261;28;20366;-29
2021/04/01 04:14:40;;;;;;;1999.90;999.90;;;;;;;14.48;84.47;-18293.56;5020749;28;20283;-29
2021/04/01 04:17:26;;;;;;;1999.90;999.90;;;;;;;14.14;88.45;-18284.78;5022619;28;20310;-29
2021/04/01 04:20:13;;;;;;;1999.90;999.90;;;;;;;14.55;86.68;-18295.31;5020872;28;20202;-29
2021/04/01 04:23:01;;;;;;;1999.90;999.90;;;;;;;13.69;92.75;-18272.91;5020995;28;20206;-30
2021/04/01 04:25:49;;;;;;;1999.90;999.90;;;;;;;14.16;92.81;-18285.03;5028566;28;20222;-29
2021/04/01 04:28:44;;;;;;;1999.90;999.90;;;;;;;14.05;90.81;-18282.38;5029519;28;20206;-29
2021/04/01 04:31:30;;;;;;;1999.90;999.90;;;;;;;13.86;90.63;-18277.31;5022542;28;20234;-29
2021/04/01 04:34:17;;;;;;;1999.90;999.90;;;;;;;14.31;89.91;-18289.03;5022655;28;20315;-29
2021/04/01 04:37:04;;;;;;;1999.90;999.90;;;;;;;13.98;92.24;-18280.50;5020055;28;20203;-29
2021/04/01 04:39:50;;;;;;;1999.90;999.90;;;;;;;14.06;91.59;-18282.63;5023816;28;20190;-29
2021/04/01 04:42:36;;;;;;;1999.90;999.90;;;;;;;14.18;89.53;-18285.69;5019820;28;20304;-30
2021/04/01 04:45:22;;;;;;;1999.90;999.90;;;;;;;14.52;90.27;-18294.63;5020175;28;20209;-30
2021/04/01 04:48:10;;;;;;;1999.90;999.90;;;;;;;14.65;87.55;-18297.97;5022213;28;20202;-30
2021/04/01 04:50:57;;;;;;;1999.90;999.90;;;;;;;13.96;92.05;-18279.97;5019938;28;20229;-29
2021/04/01 04:53:45;;;;;;;1999.90;999.90;;;;;;;13.57;99.01;-18269.72;5019661;28;20206;-29
2021/04/01 04:56:32;;;;;;;1999.90;999.90;;;;;;;13.94;92.19;-18279.31;5023783;28;20245;-29
2021/04/01 04:59:24;;;;;;;1999.90;999.90;;;;;;;14.45;88.14;-18292.91;5021717;28;20206;-29
2021/04/01 05:05:15;;;;;;;1999.90;999.90;;;;;;;13.84;99.63;-18276.78;5020796;28;20205;-29
2021/04/01 05:08:01;;;;;;;1999.90;999.90;;;;;;;13.42;100.00;-18265.84;5019364;28;20484;-29
2021/04/01 05:10:48;;;;;;;1999.90;999.90;;;;;;;13.41;100.00;-18265.44;5019138;28;20479;-29
2021/04/01 05:13:34;;;;;;;1999.90;999.90;;;;;;;13.49;100.00;-18267.56;5019476;28;20201;-29
2021/04/01 05:16:23;;;;;;;1999.90;999.90;;;;;;;12.94;100.00;-18253.16;5018762;28;20300;-29
2021/04/01 05:19:11;;;;;;;1999.90;999.90;;;;;;;13.05;100.00;-18255.97;5019032;28;20205;-29
2021/04/01 05:22:04;;;;;;;1999.90;999.90;;;;;;;13.21;100.00;-18260.09;5019356;28;20197;-29
2021/04/01 05:24:52;;;;;;;1999.90;999.90;;;;;;;13.48;100.00;-18267.31;5020937;28;20612;-29
2021/04/01 05:27:41;;;;;;;1999.90;999.90;;;;;;;13.16;100.00;-18258.78;5019573;28;20201;-29
2021/04/01 05:30:27;;;;;;;1999.90;999.90;;;;;;;13.35;100.00;-18263.97;5022674;28;20201;-29
2021/04/01 05:33:24;;;;;;;1999.90;999.90;;;;;;;13.51;100.00;-18267.97;5023677;28;20446;-29
2021/04/01 05:36:15;;;;;;;1999.90;999.90;;;;;;;13.51;100.00;-18268.09;5019551;28;20528;-29
2021/04/01 05:39:02;;;;;;;1999.90;999.90;;;;;;;13.43;100.00;-18265.97;5019053;28;20209;-29
2021/04/01 05:41:52;;;;;;;1999.90;999.90;;;;;;;13.63;100.00;-18271.16;5020129;28;20281;-29
2021/04/01 05:44:41;;;;;;;1999.90;999.90;;;;;;;13.90;100.00;-18278.25;5019075;28;20332;-29
2021/04/01 05:47:35;;;;;;;1999.90;999.90;;;;;;;14.08;100.00;-18283.03;5022028;28;20205;-29
2021/04/01 05:50:37;;;;;;;1999.90;999.90;;;;;;;14.12;100.00;-18284.25;5027686;28;20597;-30
2021/04/01 05:56:58;;;;;;;1999.90;999.90;;;;;;;14.17;100.00;-18285.44;5043641;28;20260;-30
2021/04/01 06:03:13;;;;;;;1999.90;999.90;;;;;;;13.96;100.00;-18279.97;5036389;28;20210;-29
2021/04/01 06:06:06;;;;;;;1999.90;999.90;;;;;;;13.86;100.00;-18277.16;5038724;28;20612;-29
2021/04/01 06:08:56;;;;;;;1999.90;999.90;;;;;;;13.88;100.00;-18277.69;5038595;28;20343;-30
2021/04/01 06:11:43;;;;;;;1999.90;999.90;;;;;;;14.20;97.82;-18286.22;5038008;28;20225;-29
2021/04/01 06:14:56;;;;;;;1999.90;999.90;;;;;;;14.53;98.92;-18294.91;5037923;28;20275;-30
2021/04/01 06:17:46;;;;;;;1999.90;999.90;;;;;;;14.67;99.29;-18298.50;5037940;28;20206;-29
2021/04/01 06:20:35;;;;;;;1999.90;999.90;;;;;;;14.44;97.93;-18292.63;5039437;28;20315;-29
2021/04/01 06:23:28;;;;;;;1999.90;999.90;;;;;;;14.68;98.74;-18298.91;5038335;28;20205;-29
2021/04/01 06:26:19;;;;;;;1999.90;999.90;;;;;;;14.71;97.46;-18299.69;5037911;28;20201;-30
2021/04/01 06:29:12;;;;;;;1999.90;999.90;;;;;;;14.69;95.95;-18299.16;5038614;28;20201;-29
2021/04/01 06:32:01;;;;;;;1999.90;999.90;;;;;;;14.53;96.69;-18294.78;5042686;28;20326;-29
2021/04/01 06:34:49;;;;;;;1999.90;999.90;;;;;;;14.23;94.79;-18287.03;5040726;28;20244;-30
2021/04/01 06:37:54;;;;;;;1999.90;999.90;;;;;;;14.06;97.26;-18282.63;5044322;28;20262;-29
2021/04/01 06:40:44;;;;;;;1999.90;999.90;;;;;;;14.72;91.04;-18299.84;5041664;28;20206;-29
2021/04/01 06:44:08;;;;;;;1999.90;999.90;;;;;;;16.01;79.98;-18333.78;5040023;28;20291;-31
2021/04/01 06:47:08;;;;;;;1999.90;999.90;;;;;;;17.72;71.53;-18378.59;5050851;28;20221;-30
2021/04/01 06:50:05;;;;;;;1999.90;999.90;;;;;;;18.53;70.03;-18399.84;5041646;28;20312;-30
2021/04/01 06:52:58;;;;;;;1999.90;999.90;;;;;;;19.58;64.91;-18427.19;5042073;28;20625;-30
2021/04/01 06:56:14;;;;;;;1999.90;999.90;;;;;;;20.46;58.79;-18450.28;5020852;28;20313;-30
2021/04/01 06:59:10;;;;;;;1999.90;999.90;;;;;;;20.42;57.97;-18449.06;5025624;28;20571;-30
2021/04/01 07:02:18;;;;;;;1999.90;999.90;;;;;;;21.13;56.53;-18467.63;5020692;28;20492;-30
2021/04/01 07:05:18;;;;;;;1999.90;999.90;;;;;;;20.83;55.19;-18459.94;5019893;28;20197;-30
2021/04/01 07:08:08;;;;;;;1999.90;999.90;;;;;;;20.16;55.91;-18442.44;5019658;28;20206;-30
2021/04/01 07:11:08;;;;;;;1999.90;999.90;;;;;;;20.74;56.54;-18457.56;5019229;28;20284;-30
2021/04/01 07:13:58;;;;;;;1999.90;999.90;;;;;;;20.86;55.74;-18460.59;5022461;28;20205;-30
2021/04/01 07:16:48;;;;;;;1999.90;999.90;;;;;;;21.10;53.69;-18466.81;5020492;28;20273;-30
2021/04/01 07:19:55;;;;;;;1999.90;999.90;;;;;;;20.93;55.48;-18462.47;5021373;28;20198;-30
2021/04/01 07:23:04;;;;;;;1999.90;999.90;;;;;;;18.09;67.12;-18388.31;5023522;28;20344;-30
2021/04/01 07:45:01;;;;;;;1999.90;999.90;;;;;;;19.73;63.94;-18431.03;5020845;28;20293;-30
2021/04/01 07:48:08;;;;;;;1999.90;999.90;;;;;;;18.60;66.51;-18401.59;5020153;28;20185;-30
2021/04/01 07:51:02;;;;;;;1999.90;999.90;;;;;;;18.46;67.02;-18398.00;5021928;28;20699;-30
2021/04/01 07:53:53;;;;;;;1999.90;999.90;;;;;;;18.49;66.28;-18398.78;5023672;28;20264;-30
2021/04/01 07:56:42;;;;;;;1999.90;999.90;;;;;;;19.74;60.49;-18431.31;5033876;28;20198;-30
2021/04/01 07:59:33;;;;;;;1999.90;999.90;;;;;;;19.55;60.82;-18426.41;5025280;28;20197;-30
2021/04/01 08:02:27;;;;;;;1999.90;999.90;;;;;;;18.89;62.14;-18409.16;5038161;28;20487;-30
2021/04/01 08:05:15;;;;;;;1999.90;999.90;;;;;;;18.30;63.94;-18393.63;5036586;28;20219;-30
2021/04/01 08:08:06;;;;;;;1999.90;999.90;;;;;;;18.74;64.80;-18405.16;5035897;28;20239;-29
2021/04/01 08:11:03;;;;;;;1999.90;999.90;;;;;;;19.80;58.68;-18433.03;5036064;28;20377;-30
2021/04/01 08:13:57;;;;;;;1999.90;999.90;;;;;;;20.63;54.77;-18454.63;5035780;28;20206;-30
2021/04/01 08:16:49;;;;;;;1999.90;999.90;;;;;;;20.54;55.76;-18452.25;5036236;28;20198;-30
2021/04/01 08:19:40;;;;;;;1999.90;999.90;;;;;;;19.98;57.16;-18437.69;5036078;28;20205;-30
2021/04/01 08:23:00;;;;;;;1999.90;999.90;;;;;;;20.42;56.61;-18449.22;5040014;28;20191;-30
2021/04/01 08:26:15;;;;;;;1999.90;999.90;;;;;;;21.30;54.61;-18472.13;5035130;28;20201;-30
2021/04/01 08:33:09;;;;;;;1999.90;999.90;;;;;;;20.23;55.71;-18444.31;5041891;28;20227;-30
2021/04/01 08:36:24;;;;;;;1999.90;999.90;;;;;;;20.26;54.93;-18445.09;5034650;28;20520;-30
2021/04/01 08:39:31;;;;;;;1999.90;999.90;;;;;;;20.67;53.85;-18455.69;5034024;28;20198;-30
2021/04/01 08:43:15;;;;;;;1999.90;999.90;;;;;;;21.16;52.02;-18468.41;5035099;28;20490;-30
2021/04/01 08:46:45;;;;;;;1999.90;999.90;;;;;;;20.41;55.80;-18448.94;5041507;28;20217;-30
2021/04/01 08:49:42;;;;;;;1999.90;999.90;;;;;;;20.99;53.14;-18464.03;5037920;28;20484;-29
2021/04/01 08:52:54;;;;;;;1999.90;999.90;;;;;;;20.26;58.68;-18444.97;5038889;28;20240;-30
2021/04/01 08:55:52;;;;;;;1999.90;999.90;;;;;;;20.86;55.14;-18460.72;5038929;28;20202;-30
2021/04/01 08:58:42;;;;;;;1999.90;999.90;;;;;;;20.79;55.44;-18458.88;5044032;28;20206;-30
2021/04/01 09:01:30;;;;;;;1999.90;999.90;;;;;;;20.44;54.86;-18449.75;5040119;28;20718;-30
2021/04/01 09:04:23;;;;;;;1999.90;999.90;;;;;;;21.09;55.29;-18466.69;5038124;28;20205;-30
2021/04/01 09:07:14;;;;;;;1999.90;999.90;;;;;;;20.11;59.78;-18441.00;5040281;28;20205;-30
2021/04/01 09:10:04;;;;;;;1999.90;999.90;;;;;;;20.77;57.30;-18458.22;5040567;28;20209;-30
2021/04/01 09:12:56;;;;;;;1999.90;999.90;;;;;;;20.83;60.41;-18459.94;5039341;28;20697;-30
2021/04/01 09:15:50;;;;;;;1999.90;999.90;;;;;;;21.13;58.71;-18467.75;5038078;28;20210;-29
2021/04/01 09:18:37;;;;;;;1999.90;999.90;;;;;;;21.66;56.32;-18481.53;5039964;28;20508;-30
2021/04/01 09:21:31;;;;;;;1999.90;999.90;;;;;;;21.82;54.50;-18485.63;5038052;28;20343;-30
2021/04/01 09:24:17;;;;;;;1999.90;999.90;;;;;;;21.27;53.82;-18471.47;5037949;28;20204;-30
2021/04/01 09:27:11;;;;;;;1999.90;999.90;;;;;;;21.27;55.35;-18471.47;5037674;28;20211;-30
2021/04/01 09:30:02;;;;;;;1999.90;999.90;;;;;;;22.95;49.01;-18515.13;5038632;28;20241;-30
2021/04/01 09:33:00;;;;;;;1999.90;999.90;;;;;;;22.26;51.35;-18497.13;5044793;28;20262;-29
2021/04/01 09:35:46;;;;;;;1999.90;999.90;;;;;;;21.25;51.10;-18470.81;5039244;28;20635;-28
2021/04/01 09:38:36;;;;;;;1999.90;999.90;;;;;;;20.89;55.39;-18461.53;5038425;28;20213;-28
2021/04/01 09:41:26;;;;;;;1999.90;999.90;;;;;;;21.19;53.18;-18469.34;5037662;28;20306;-28
2021/04/01 09:44:11;;;;;;;1999.90;999.90;;;;;;;20.44;54.58;-18449.75;5037808;28;20204;-28
2021/04/01 09:47:08;;;;;;;1999.90;999.90;;;;;;;21.43;55.13;-18475.56;5042117;28;20309;-28
2021/04/01 09:50:03;;;;;;;1999.90;999.90;;;;;;;20.82;54.02;-18459.53;5036655;28;20321;-29
2021/04/01 09:52:59;;;;;;;1999.90;999.90;;;;;;;21.45;54.40;-18476.09;5038380;28;20234;-28
2021/04/01 09:55:48;;;;;;;1999.90;999.90;;;;;;;21.44;54.05;-18475.84;5042113;28;20211;-29
2021/04/01 09:58:39;;;;;;;1999.90;999.90;;;;;;;21.42;55.39;-18475.31;5039646;28;20212;-29
2021/04/01 10:01:28;;;;;;;1999.90;999.90;;;;;;;22.36;50.53;-18499.66;5038286;28;20198;-29
2021/04/01 10:04:21;;;;;;;1999.90;999.90;;;;;;;21.38;53.08;-18474.25;5039559;28;20275;-29
2021/04/01 10:07:15;;;;;;;1999.90;999.90;;;;;;;21.63;51.49;-18480.72;5038007;28;20338;-28
2021/04/01 10:10:06;;;;;;;1999.90;999.90;;;;;;;21.74;50.57;-18483.50;5041270;28;20199;-29
2021/04/01 10:12:55;;;;;;;1999.90;999.90;;;;;;;21.38;51.49;-18474.13;5038028;28;20294;-29
2021/04/01 10:15:42;;;;;;;1999.90;999.90;;;;;;;21.95;49.76;-18489.19;5039605;28;20259;-29
2021/04/01 10:18:36;;;;;;;1999.90;999.90;;;;;;;21.74;51.23;-18483.50;5051546;28;20276;-29
2021/04/01 10:21:24;;;;;;;1999.90;999.90;;;;;;;22.18;52.26;-18495.03;5044373;28;20231;-29
2021/04/01 10:24:21;;;;;;;1999.90;999.90;;;;;;;21.66;55.51;-18481.66;5037334;28;20224;-29
2021/04/01 10:27:22;;;;;;;1999.90;999.90;;;;;;;21.83;52.16;-18486.03;5037222;28;20256;-29
2021/04/01 10:30:09;;;;;;;1999.90;999.90;;;;;;;21.47;49.69;-18476.50;5037145;28;20621;-29
2021/04/01 10:33:06;;;;;;;1999.90;999.90;;;;;;;21.55;50.92;-18478.75;5041093;28;20225;-29
2021/04/01 10:35:58;;;;;;;1999.90;999.90;;;;;;;22.36;50.16;-18499.66;5038956;28;20225;-29
2021/04/01 10:38:44;;;;;;;1999.90;999.90;;;;;;;22.13;50.80;-18493.72;5036945;28;20489;-29
2021/04/01 10:41:51;;;;;;;1999.90;999.90;;;;;;;21.42;51.85;-18475.31;5037314;28;20201;-29
2021/04/01 10:45:06;;;;;;;1999.90;999.90;;;;;;;21.74;50.95;-18483.66;5036903;28;20235;-29
2021/04/01 10:48:21;;;;;;;1999.90;999.90;;;;;;;21.57;50.70;-18479.28;5038441;28;20213;-29
2021/04/01 10:51:11;;;;;;;1999.90;999.90;;;;;;;21.47;50.58;-18476.63;5035420;28;20201;-29
2021/04/01 10:53:57;;;;;;;1999.90;999.90;;;;;;;21.75;49.92;-18483.78;5016870;28;20226;-29
2021/04/01 10:56:55;;;;;;;1999.90;999.90;;;;;;;21.70;51.84;-18482.59;5017227;28;20274;-29
2021/04/01 10:59:46;;;;;;;1999.90;999.90;;;;;;;20.94;52.08;-18462.84;5016800;28;20212;-28
2021/04/01 11:02:38;;;;;;;1999.90;999.90;;;;;;;21.41;52.24;-18475.03;5019830;28;20209;-28
2021/04/01 11:05:27;;;;;;;1999.90;999.90;;;;;;;20.76;49.54;-18457.97;5018042;28;20279;-29
2021/04/01 11:08:13;;;;;;;1999.90;999.90;;;;;;;20.52;52.19;-18451.84;5017854;28;20195;-28
2021/04/01 11:11:06;;;;;;;1999.90;999.90;;;;;;;20.94;53.20;-18462.72;5022200;28;20205;-30
2021/04/01 11:13:56;;;;;;;1999.90;999.90;;;;;;;21.28;50.93;-18471.59;5020346;28;20264;-28
2021/04/01 11:16:48;;;;;;;1999.90;999.90;;;;;;;20.78;53.56;-18458.47;5037335;28;20203;-28
2021/04/01 11:19:36;;;;;;;1999.90;999.90;;;;;;;20.76;52.29;-18457.97;5039813;28;20286;-29
2021/04/01 11:22:21;;;;;;;1999.90;999.90;;;;;;;21.14;53.89;-18467.88;5033547;28;20208;-28
2021/04/01 11:25:12;;;;;;;1999.90;999.90;;;;;;;20.95;55.56;-18463.13;5038505;28;20349;-29
2021/04/01 11:28:08;;;;;;;1999.90;999.90;;;;;;;20.79;55.25;-18458.88;5039140;28;20629;-28
2021/04/01 11:30:58;;;;;;;1999.90;999.90;;;;;;;20.25;54.23;-18444.84;5038209;28;20197;-29
2021/04/01 11:33:51;;;;;;;1999.90;999.90;;;;;;;20.02;54.67;-18438.59;5038113;28;20211;-29
2021/04/01 11:36:43;;;;;;;1999.90;999.90;;;;;;;21.16;51.53;-18468.41;5041172;28;20194;-28
2021/04/01 11:39:37;;;;;;;1999.90;999.90;;;;;;;20.28;53.84;-18445.50;5037643;28;20206;-29
2021/04/01 11:42:29;;;;;;;1999.90;999.90;;;;;;;21.87;52.56;-18486.94;5038062;28;20199;-29
2021/04/01 11:45:17;;;;;;;1999.90;999.90;;;;;;;20.71;54.78;-18456.63;5038347;28;20267;-29
2021/04/01 11:48:11;;;;;;;1999.90;999.90;;;;;;;20.18;53.87;-18442.97;5039063;28;20285;-28
2021/04/01 11:50:57;;;;;;;1999.90;999.90;;;;;;;19.63;55.13;-18428.38;5038476;28;20204;-29
2021/04/01 11:53:44;;;;;;;1999.90;999.90;;;;;;;19.86;57.85;-18434.50;5035071;28;20243;-28
2021/04/01 11:56:37;;;;;;;1999.90;999.90;;;;;;;20.61;57.95;-18454.09;5035994;28;20202;-29
2021/04/01 11:59:30;;;;;;;1999.90;999.90;;;;;;;21.05;54.26;-18465.63;5039208;28;20198;-29
2021/04/01 12:02:18;;;;;;;1999.90;999.90;;;;;;;20.43;55.92;-18449.47;5035777;28;20404;-28
2021/04/01 12:05:07;;;;;;;1999.90;999.90;;;;;;;20.59;57.40;-18453.72;5035291;28;20205;-28
2021/04/01 12:07:57;;;;;;;1999.90;999.90;;;;;;;20.33;56.33;-18446.69;5035728;28;20205;-29
2021/04/01 12:10:57;;;;;;;1999.90;999.90;;;;;;;20.48;58.69;-18450.66;5041145;28;20277;-29
2021/04/01 12:13:43;;;;;;;1999.90;999.90;;;;;;;20.17;56.82;-18442.59;5016873;28;20193;-28
2021/04/01 12:19:19;;;;;;;1999.90;999.90;;;;;;;20.76;52.44;-18458.09;5133619;23;20335;-28
2021/04/01 12:22:13;;;;;;;1999.90;999.90;;;;;;;19.75;56.83;-18431.72;5059374;28;20215;-30
2021/04/01 12:24:59;;;;;;;1999.90;999.90;;;;;;;20.27;56.28;-18445.22;5059514;28;20251;-30
2021/04/01 12:27:58;;;;;;;1999.90;999.90;;;;;;;20.21;55.78;-18443.63;5061329;28;20197;-30
2021/04/01 12:30:46;;;;;;;1999.90;999.90;;;;;;;20.72;56.41;-18456.91;5059186;28;20240;-30
2021/04/01 12:33:37;;;;;;;1999.90;999.90;;;;;;;20.48;56.95;-18450.66;5058337;28;20275;-30
2021/04/01 12:36:36;;;;;;;1999.90;999.90;;;;;;;21.67;54.73;-18481.78;5058290;28;20351;-29
2021/04/01 12:39:32;;;;;;;1999.90;999.90;;;;;;;20.22;60.99;-18444.03;5058991;28;20204;-30
2021/04/01 12:42:17;;;;;;;1999.90;999.90;;;;;;;20.62;58.46;-18454.50;5059213;28;20468;-30
2021/04/01 12:45:14;;;;;;;1999.90;999.90;;;;;;;20.31;57.50;-18446.28;5058877;28;20205;-29
2021/04/01 12:48:17;;;;;;;1999.90;999.90;;;;;;;20.55;57.64;-18452.53;5058866;28;20526;-30
2021/04/01 12:51:02;;;;;;;1999.90;999.90;;;;;;;19.59;61.41;-18427.47;5062369;28;20297;-30
2021/04/01 12:54:01;;;;;;;1999.90;999.90;;;;;;;20.16;58.23;-18442.31;5063875;28;20604;-30
2021/04/01 12:56:54;;;;;;;1999.90;999.90;;;;;;;21.01;59.07;-18464.44;5062478;28;20211;-30
2021/04/01 12:59:42;;;;;;;1999.90;999.90;;;;;;;21.12;57.40;-18467.34;5059313;28;20201;-30
2021/04/01 13:02:30;;;;;;;1999.90;999.90;;;;;;;20.34;56.88;-18446.94;5058172;28;20203;-30
2021/04/01 13:05:19;;;;;;;1999.90;999.90;;;;;;;21.38;56.22;-18474.25;5057989;28;20305;-30
2021/04/01 13:11:14;;;;;;;1999.90;999.90;;;;;;;20.10;56.57;-18440.84;5038979;28;20268;-30